sensor_id;sensor_type;location;lat;lon;timestamp;P1;durP1;ratioP1;P2;durP2;ratioP2
65461;SDS011;53236;43.666;18.444;2022-12-11T00:01:57;2.53;;;1.10;;
65461;SDS011;53236;43.666;18.444;2022-12-11T00:04:23;2.20;;;1.03;;
65461;SDS011;53236;43.666;18.444;2022-12-11T00:06:48;1.87;;;0.97;;
65461;SDS011;53236;43.666;18.444;2022-12-11T00:09:17;8.37;;;3.47;;
65461;SDS011;53236;43.666;18.444;2022-12-11T00:11:45;9.17;;;5.37;;
65461;SDS011;53236;43.666;18.444;2022-12-11T00:14:11;2.17;;;1.10;;
65461;SDS011;53236;43.666;18.444;2022-12-11T00:16:38;4.70;;;0.70;;
65461;SDS011;53236;43.666;18.444;2022-12-11T00:19:04;9.43;;;6.20;;
65461;SDS011;53236;43.666;18.444;2022-12-11T00:21:30;3.80;;;1.73;;
65461;SDS011;53236;43.666;18.444;2022-12-11T00:23:56;2.13;;;1.07;;
65461;SDS011;53236;43.666;18.444;2022-12-11T00:26:22;1.57;;;0.80;;
65461;SDS011;53236;43.666;18.444;2022-12-11T00:28:50;7.23;;;4.00;;
65461;SDS011;53236;43.666;18.444;2022-12-11T00:31:20;2.17;;;0.50;;
65461;SDS011;53236;43.666;18.444;2022-12-11T00:33:46;0.63;;;0.40;;
65461;SDS011;53236;43.666;18.444;2022-12-11T00:36:14;3.70;;;0.70;;
65461;SDS011;53236;43.666;18.444;2022-12-11T00:38:42;1.03;;;0.47;;
65461;SDS011;53236;43.666;18.444;2022-12-11T00:41:08;1.03;;;0.50;;
65461;SDS011;53236;43.666;18.444;2022-12-11T00:43:34;7.43;;;2.77;;
65461;SDS011;53236;43.666;18.444;2022-12-11T00:46:01;7.23;;;2.80;;
65461;SDS011;53236;43.666;18.444;2022-12-11T00:48:27;5.33;;;2.50;;
65461;SDS011;53236;43.666;18.444;2022-12-11T00:50:53;1.77;;;0.60;;
65461;SDS011;53236;43.666;18.444;2022-12-11T00:53:18;1.17;;;0.33;;
65461;SDS011;53236;43.666;18.444;2022-12-11T00:55:44;2.00;;;0.97;;
65461;SDS011;53236;43.666;18.444;2022-12-11T00:58:10;1.83;;;0.57;;
65461;SDS011;53236;43.666;18.444;2022-12-11T01:00:37;2.90;;;0.90;;
65461;SDS011;53236;43.666;18.444;2022-12-11T01:03:04;2.10;;;0.97;;
65461;SDS011;53236;43.666;18.444;2022-12-11T01:05:30;0.70;;;0.40;;
65461;SDS011;53236;43.666;18.444;2022-12-11T01:07:56;1.23;;;0.50;;
65461;SDS011;53236;43.666;18.444;2022-12-11T01:10:21;0.30;;;0.27;;
65461;SDS011;53236;43.666;18.444;2022-12-11T01:13:00;3.47;;;1.30;;
65461;SDS011;53236;43.666;18.444;2022-12-11T01:15:30;3.63;;;0.57;;
65461;SDS011;53236;43.666;18.444;2022-12-11T01:18:03;0.73;;;0.40;;
65461;SDS011;53236;43.666;18.444;2022-12-11T01:20:29;0.73;;;0.40;;
65461;SDS011;53236;43.666;18.444;2022-12-11T01:22:56;2.60;;;1.40;;
65461;SDS011;53236;43.666;18.444;2022-12-11T01:25:23;1.93;;;0.83;;
65461;SDS011;53236;43.666;18.444;2022-12-11T01:27:50;1.43;;;0.60;;
65461;SDS011;53236;43.666;18.444;2022-12-11T01:30:17;2.47;;;0.80;;
65461;SDS011;53236;43.666;18.444;2022-12-11T01:32:44;2.13;;;0.80;;
65461;SDS011;53236;43.666;18.444;2022-12-11T01:35:10;0.67;;;0.40;;
65461;SDS011;53236;43.666;18.444;2022-12-11T01:37:36;0.97;;;0.47;;
65461;SDS011;53236;43.666;18.444;2022-12-11T01:40:02;0.90;;;0.50;;
65461;SDS011;53236;43.666;18.444;2022-12-11T01:42:29;1.17;;;0.40;;
65461;SDS011;53236;43.666;18.444;2022-12-11T01:47:46;3.40;;;1.53;;
65461;SDS011;53236;43.666;18.444;2022-12-11T01:50:17;1.87;;;0.80;;
65461;SDS011;53236;43.666;18.444;2022-12-11T01:52:43;2.70;;;0.90;;
65461;SDS011;53236;43.666;18.444;2022-12-11T01:55:11;2.90;;;1.00;;
65461;SDS011;53236;43.666;18.444;2022-12-11T01:57:37;1.37;;;0.70;;
65461;SDS011;53236;43.666;18.444;2022-12-11T02:00:07;1.70;;;0.67;;
65461;SDS011;53236;43.666;18.444;2022-12-11T02:02:33;1.43;;;0.67;;
65461;SDS011;53236;43.666;18.444;2022-12-11T02:05:01;1.87;;;0.90;;
65461;SDS011;53236;43.666;18.444;2022-12-11T02:07:28;2.00;;;0.90;;
65461;SDS011;53236;43.666;18.444;2022-12-11T02:09:59;1.00;;;0.40;;
65461;SDS011;53236;43.666;18.444;2022-12-11T02:20:41;1.03;;;0.40;;
65461;SDS011;53236;43.666;18.444;2022-12-11T02:28:38;0.73;;;0.53;;
65461;SDS011;53236;43.666;18.444;2022-12-11T02:31:11;0.70;;;0.40;;
65461;SDS011;53236;43.666;18.444;2022-12-11T02:33:54;0.50;;;0.30;;
65461;SDS011;53236;43.666;18.444;2022-12-11T02:36:27;1.03;;;0.40;;
65461;SDS011;53236;43.666;18.444;2022-12-11T02:38:57;0.73;;;0.40;;
65461;SDS011;53236;43.666;18.444;2022-12-11T02:41:25;1.33;;;0.47;;
65461;SDS011;53236;43.666;18.444;2022-12-11T02:43:54;0.77;;;0.40;;
65461;SDS011;53236;43.666;18.444;2022-12-11T02:46:21;1.03;;;0.40;;
65461;SDS011;53236;43.666;18.444;2022-12-11T02:48:50;1.93;;;0.60;;
65461;SDS011;53236;43.666;18.444;2022-12-11T02:51:19;1.30;;;0.47;;
65461;SDS011;53236;43.666;18.444;2022-12-11T02:53:50;1.07;;;0.50;;
65461;SDS011;53236;43.666;18.444;2022-12-11T02:56:33;1.10;;;0.60;;
65461;SDS011;53236;43.666;18.444;2022-12-11T02:59:08;0.67;;;0.33;;
65461;SDS011;53236;43.666;18.444;2022-12-11T03:01:39;0.80;;;0.40;;
65461;SDS011;53236;43.666;18.444;2022-12-11T03:04:05;0.93;;;0.53;;
65461;SDS011;53236;43.666;18.444;2022-12-11T03:06:33;0.83;;;0.40;;
65461;SDS011;53236;43.666;18.444;2022-12-11T03:09:01;0.60;;;0.40;;
65461;SDS011;53236;43.666;18.444;2022-12-11T03:11:28;1.60;;;0.60;;
65461;SDS011;53236;43.666;18.444;2022-12-11T03:13:54;0.83;;;0.30;;
65461;SDS011;53236;43.666;18.444;2022-12-11T03:16:28;1.23;;;0.40;;
65461;SDS011;53236;43.666;18.444;2022-12-11T03:21:59;0.85;;;0.40;;
65461;SDS011;53236;43.666;18.444;2022-12-11T03:27:26;1.27;;;0.50;;
65461;SDS011;53236;43.666;18.444;2022-12-11T03:30:07;0.95;;;0.50;;
65461;SDS011;53236;43.666;18.444;2022-12-11T03:35:25;1.10;;;0.50;;
65461;SDS011;53236;43.666;18.444;2022-12-11T03:37:53;0.73;;;0.30;;
65461;SDS011;53236;43.666;18.444;2022-12-11T03:40:22;0.67;;;0.40;;
65461;SDS011;53236;43.666;18.444;2022-12-11T03:42:50;0.60;;;0.30;;
65461;SDS011;53236;43.666;18.444;2022-12-11T03:45:18;0.70;;;0.50;;
65461;SDS011;53236;43.666;18.444;2022-12-11T03:47:46;0.93;;;0.40;;
65461;SDS011;53236;43.666;18.444;2022-12-11T03:50:12;0.70;;;0.30;;
65461;SDS011;53236;43.666;18.444;2022-12-11T03:52:40;0.37;;;0.27;;
65461;SDS011;53236;43.666;18.444;2022-12-11T03:55:08;0.63;;;0.40;;
65461;SDS011;53236;43.666;18.444;2022-12-11T03:57:36;1.43;;;0.60;;
65461;SDS011;53236;43.666;18.444;2022-12-11T04:00:09;0.50;;;0.30;;
65461;SDS011;53236;43.666;18.444;2022-12-11T04:02:38;0.35;;;0.30;;
65461;SDS011;53236;43.666;18.444;2022-12-11T04:05:04;0.70;;;0.40;;
65461;SDS011;53236;43.666;18.444;2022-12-11T04:07:31;0.80;;;0.50;;
65461;SDS011;53236;43.666;18.444;2022-12-11T04:09:56;0.80;;;0.40;;
65461;SDS011;53236;43.666;18.444;2022-12-11T04:12:22;0.90;;;0.40;;
65461;SDS011;53236;43.666;18.444;2022-12-11T04:14:48;0.90;;;0.40;;
65461;SDS011;53236;43.666;18.444;2022-12-11T04:17:29;2.17;;;0.40;;
65461;SDS011;53236;43.666;18.444;2022-12-11T04:20:15;1.00;;;0.40;;
65461;SDS011;53236;43.666;18.444;2022-12-11T04:23:02;1.43;;;0.30;;
65461;SDS011;53236;43.666;18.444;2022-12-11T04:25:47;0.40;;;0.30;;
65461;SDS011;53236;43.666;18.444;2022-12-11T04:28:13;0.73;;;0.47;;
65461;SDS011;53236;43.666;18.444;2022-12-11T04:30:39;0.90;;;0.40;;
65461;SDS011;53236;43.666;18.444;2022-12-11T04:33:05;0.37;;;0.20;;
65461;SDS011;53236;43.666;18.444;2022-12-11T04:35:31;0.30;;;0.27;;
65461;SDS011;53236;43.666;18.444;2022-12-11T04:37:57;0.50;;;0.30;;
65461;SDS011;53236;43.666;18.444;2022-12-11T04:40:23;0.70;;;0.40;;
65461;SDS011;53236;43.666;18.444;2022-12-11T04:42:49;0.50;;;0.30;;
65461;SDS011;53236;43.666;18.444;2022-12-11T04:45:14;0.57;;;0.30;;
65461;SDS011;53236;43.666;18.444;2022-12-11T04:47:40;0.30;;;0.30;;
65461;SDS011;53236;43.666;18.444;2022-12-11T04:50:07;1.03;;;0.50;;
65461;SDS011;53236;43.666;18.444;2022-12-11T04:52:34;0.50;;;0.33;;
65461;SDS011;53236;43.666;18.444;2022-12-11T04:55:00;1.30;;;0.60;;
65461;SDS011;53236;43.666;18.444;2022-12-11T04:57:27;1.03;;;0.53;;
65461;SDS011;53236;43.666;18.444;2022-12-11T04:59:52;2.23;;;0.90;;
65461;SDS011;53236;43.666;18.444;2022-12-11T05:02:18;1.30;;;0.60;;
65461;SDS011;53236;43.666;18.444;2022-12-11T05:04:43;1.23;;;0.60;;
65461;SDS011;53236;43.666;18.444;2022-12-11T05:07:09;0.90;;;0.40;;
65461;SDS011;53236;43.666;18.444;2022-12-11T05:09:35;2.17;;;0.83;;
65461;SDS011;53236;43.666;18.444;2022-12-11T05:12:01;0.80;;;0.40;;
65461;SDS011;53236;43.666;18.444;2022-12-11T05:14:26;1.70;;;0.60;;
65461;SDS011;53236;43.666;18.444;2022-12-11T05:16:56;1.10;;;0.70;;
65461;SDS011;53236;43.666;18.444;2022-12-11T05:19:24;1.20;;;0.40;;
65461;SDS011;53236;43.666;18.444;2022-12-11T05:21:51;1.70;;;0.67;;
65461;SDS011;53236;43.666;18.444;2022-12-11T05:24:17;0.60;;;0.37;;
65461;SDS011;53236;43.666;18.444;2022-12-11T05:26:42;0.70;;;0.40;;
65461;SDS011;53236;43.666;18.444;2022-12-11T05:29:08;0.93;;;0.40;;
65461;SDS011;53236;43.666;18.444;2022-12-11T05:31:34;0.60;;;0.40;;
65461;SDS011;53236;43.666;18.444;2022-12-11T05:33:59;1.20;;;0.90;;
65461;SDS011;53236;43.666;18.444;2022-12-11T05:36:26;1.50;;;0.80;;
65461;SDS011;53236;43.666;18.444;2022-12-11T05:38:53;0.90;;;0.40;;
65461;SDS011;53236;43.666;18.444;2022-12-11T05:41:20;2.00;;;1.17;;
65461;SDS011;53236;43.666;18.444;2022-12-11T05:43:47;1.10;;;0.60;;
65461;SDS011;53236;43.666;18.444;2022-12-11T05:48:50;0.90;;;0.50;;
65461;SDS011;53236;43.666;18.444;2022-12-11T05:51:18;1.47;;;0.80;;
65461;SDS011;53236;43.666;18.444;2022-12-11T05:53:45;0.70;;;0.53;;
65461;SDS011;53236;43.666;18.444;2022-12-11T05:56:13;1.23;;;0.70;;
65461;SDS011;53236;43.666;18.444;2022-12-11T05:58:41;3.13;;;1.00;;
65461;SDS011;53236;43.666;18.444;2022-12-11T06:01:12;2.43;;;1.20;;
65461;SDS011;53236;43.666;18.444;2022-12-11T06:03:49;1.93;;;1.50;;
65461;SDS011;53236;43.666;18.444;2022-12-11T06:06:15;1.07;;;0.80;;
65461;SDS011;53236;43.666;18.444;2022-12-11T06:08:41;1.83;;;0.90;;
65461;SDS011;53236;43.666;18.444;2022-12-11T06:11:07;1.33;;;0.60;;
65461;SDS011;53236;43.666;18.444;2022-12-11T06:13:36;1.37;;;0.77;;
65461;SDS011;53236;43.666;18.444;2022-12-11T06:16:02;1.13;;;0.67;;
65461;SDS011;53236;43.666;18.444;2022-12-11T06:18:29;4.63;;;3.13;;
65461;SDS011;53236;43.666;18.444;2022-12-11T06:20:55;3.63;;;1.90;;
65461;SDS011;53236;43.666;18.444;2022-12-11T06:23:21;2.13;;;1.00;;
65461;SDS011;53236;43.666;18.444;2022-12-11T06:25:47;1.50;;;0.77;;
65461;SDS011;53236;43.666;18.444;2022-12-11T06:28:13;1.13;;;0.63;;
65461;SDS011;53236;43.666;18.444;2022-12-11T06:30:39;3.33;;;1.83;;
65461;SDS011;53236;43.666;18.444;2022-12-11T06:33:05;1.50;;;0.90;;
65461;SDS011;53236;43.666;18.444;2022-12-11T06:35:31;4.07;;;2.17;;
65461;SDS011;53236;43.666;18.444;2022-12-11T06:37:57;20.70;;;12.90;;
65461;SDS011;53236;43.666;18.444;2022-12-11T06:40:23;2.40;;;1.20;;
65461;SDS011;53236;43.666;18.444;2022-12-11T06:42:48;1.93;;;0.90;;
65461;SDS011;53236;43.666;18.444;2022-12-11T06:45:14;16.10;;;4.87;;
65461;SDS011;53236;43.666;18.444;2022-12-11T06:47:40;4.23;;;2.40;;
65461;SDS011;53236;43.666;18.444;2022-12-11T06:50:05;4.20;;;1.60;;
65461;SDS011;53236;43.666;18.444;2022-12-11T06:52:31;13.80;;;8.07;;
65461;SDS011;53236;43.666;18.444;2022-12-11T06:54:57;2.40;;;1.60;;
65461;SDS011;53236;43.666;18.444;2022-12-11T06:57:23;2.20;;;1.20;;
65461;SDS011;53236;43.666;18.444;2022-12-11T06:59:48;4.23;;;2.43;;
65461;SDS011;53236;43.666;18.444;2022-12-11T07:02:15;3.07;;;2.33;;
65461;SDS011;53236;43.666;18.444;2022-12-11T07:04:42;5.77;;;3.27;;
65461;SDS011;53236;43.666;18.444;2022-12-11T07:07:08;3.67;;;1.37;;
65461;SDS011;53236;43.666;18.444;2022-12-11T07:09:35;8.03;;;5.10;;
65461;SDS011;53236;43.666;18.444;2022-12-11T07:12:02;4.77;;;3.67;;
65461;SDS011;53236;43.666;18.444;2022-12-11T07:14:29;2.73;;;1.70;;
65461;SDS011;53236;43.666;18.444;2022-12-11T07:16:55;8.47;;;5.83;;
65461;SDS011;53236;43.666;18.444;2022-12-11T07:19:21;5.80;;;4.60;;
65461;SDS011;53236;43.666;18.444;2022-12-11T07:21:47;9.83;;;6.63;;
65461;SDS011;53236;43.666;18.444;2022-12-11T07:24:12;3.67;;;2.37;;
65461;SDS011;53236;43.666;18.444;2022-12-11T07:26:38;4.97;;;2.97;;
65461;SDS011;53236;43.666;18.444;2022-12-11T07:29:04;3.00;;;1.73;;
65461;SDS011;53236;43.666;18.444;2022-12-11T07:31:30;2.83;;;1.70;;
65461;SDS011;53236;43.666;18.444;2022-12-11T07:33:57;2.83;;;1.60;;
65461;SDS011;53236;43.666;18.444;2022-12-11T07:36:24;4.23;;;2.63;;
65461;SDS011;53236;43.666;18.444;2022-12-11T07:38:50;5.50;;;3.33;;
65461;SDS011;53236;43.666;18.444;2022-12-11T07:41:17;3.80;;;2.47;;
65461;SDS011;53236;43.666;18.444;2022-12-11T07:43:43;7.93;;;5.63;;
65461;SDS011;53236;43.666;18.444;2022-12-11T07:46:10;9.10;;;5.87;;
65461;SDS011;53236;43.666;18.444;2022-12-11T07:48:41;20.67;;;9.67;;
65461;SDS011;53236;43.666;18.444;2022-12-11T07:51:21;26.10;;;12.63;;
65461;SDS011;53236;43.666;18.444;2022-12-11T07:54:00;52.72;;;17.67;;
65461;SDS011;53236;43.666;18.444;2022-12-11T07:56:31;26.57;;;11.27;;
65461;SDS011;53236;43.666;18.444;2022-12-11T07:59:02;16.90;;;6.70;;
65461;SDS011;53236;43.666;18.444;2022-12-11T08:01:30;15.10;;;6.40;;
65461;SDS011;53236;43.666;18.444;2022-12-11T08:03:57;15.03;;;7.17;;
65461;SDS011;53236;43.666;18.444;2022-12-11T08:06:24;15.83;;;5.53;;
65461;SDS011;53236;43.666;18.444;2022-12-11T08:08:53;10.40;;;4.30;;
65461;SDS011;53236;43.666;18.444;2022-12-11T08:11:19;10.67;;;5.73;;
65461;SDS011;53236;43.666;18.444;2022-12-11T08:13:45;8.97;;;4.93;;
65461;SDS011;53236;43.666;18.444;2022-12-11T08:16:11;6.37;;;3.20;;
65461;SDS011;53236;43.666;18.444;2022-12-11T08:18:38;4.77;;;2.60;;
65461;SDS011;53236;43.666;18.444;2022-12-11T08:21:08;12.07;;;7.40;;
65461;SDS011;53236;43.666;18.444;2022-12-11T08:23:35;27.33;;;17.17;;
65461;SDS011;53236;43.666;18.444;2022-12-11T08:26:01;37.07;;;25.10;;
65461;SDS011;53236;43.666;18.444;2022-12-11T08:28:32;7.90;;;5.00;;
65461;SDS011;53236;43.666;18.444;2022-12-11T08:30:58;11.17;;;9.20;;
65461;SDS011;53236;43.666;18.444;2022-12-11T08:33:24;7.53;;;4.90;;
65461;SDS011;53236;43.666;18.444;2022-12-11T08:35:50;4.97;;;3.60;;
65461;SDS011;53236;43.666;18.444;2022-12-11T08:38:16;5.93;;;3.57;;
65461;SDS011;53236;43.666;18.444;2022-12-11T08:40:42;6.67;;;4.20;;
65461;SDS011;53236;43.666;18.444;2022-12-11T08:43:08;7.27;;;4.60;;
65461;SDS011;53236;43.666;18.444;2022-12-11T08:45:33;6.43;;;5.13;;
65461;SDS011;53236;43.666;18.444;2022-12-11T08:47:59;8.17;;;5.60;;
65461;SDS011;53236;43.666;18.444;2022-12-11T08:50:25;10.90;;;5.83;;
65461;SDS011;53236;43.666;18.444;2022-12-11T08:52:51;5.10;;;3.03;;
65461;SDS011;53236;43.666;18.444;2022-12-11T08:55:17;4.93;;;3.20;;
65461;SDS011;53236;43.666;18.444;2022-12-11T08:57:44;7.90;;;4.90;;
65461;SDS011;53236;43.666;18.444;2022-12-11T09:00:10;4.83;;;3.40;;
65461;SDS011;53236;43.666;18.444;2022-12-11T09:02:37;15.20;;;7.97;;
65461;SDS011;53236;43.666;18.444;2022-12-11T09:05:03;4.90;;;3.20;;
65461;SDS011;53236;43.666;18.444;2022-12-11T09:07:35;6.83;;;3.50;;
65461;SDS011;53236;43.666;18.444;2022-12-11T09:10:02;3.80;;;2.63;;
65461;SDS011;53236;43.666;18.444;2022-12-11T09:12:29;4.67;;;3.23;;
65461;SDS011;53236;43.666;18.444;2022-12-11T09:14:55;5.13;;;3.37;;
65461;SDS011;53236;43.666;18.444;2022-12-11T09:17:21;4.53;;;2.63;;
65461;SDS011;53236;43.666;18.444;2022-12-11T09:19:46;17.23;;;11.67;;
65461;SDS011;53236;43.666;18.444;2022-12-11T09:22:12;8.67;;;5.10;;
65461;SDS011;53236;43.666;18.444;2022-12-11T09:24:38;14.50;;;7.27;;
65461;SDS011;53236;43.666;18.444;2022-12-11T09:27:04;17.33;;;9.97;;
65461;SDS011;53236;43.666;18.444;2022-12-11T09:29:30;18.57;;;8.20;;
65461;SDS011;53236;43.666;18.444;2022-12-11T09:31:56;17.83;;;11.57;;
65461;SDS011;53236;43.666;18.444;2022-12-11T09:34:22;8.23;;;5.17;;
65461;SDS011;53236;43.666;18.444;2022-12-11T09:36:48;9.20;;;5.47;;
65461;SDS011;53236;43.666;18.444;2022-12-11T09:39:14;10.80;;;7.97;;
65461;SDS011;53236;43.666;18.444;2022-12-11T09:46:59;5.27;;;4.20;;
65461;SDS011;53236;43.666;18.444;2022-12-11T09:49:38;7.07;;;4.97;;
65461;SDS011;53236;43.666;18.444;2022-12-11T09:54:58;36.07;;;24.70;;
65461;SDS011;53236;43.666;18.444;2022-12-11T10:05:35;36.17;;;21.03;;
65461;SDS011;53236;43.666;18.444;2022-12-11T10:19:17;8.23;;;5.67;;
65461;SDS011;53236;43.666;18.444;2022-12-11T10:21:46;8.03;;;5.53;;
65461;SDS011;53236;43.666;18.444;2022-12-11T10:24:57;11.23;;;6.30;;
65461;SDS011;53236;43.666;18.444;2022-12-11T10:27:12;3.83;;;2.53;;
65461;SDS011;53236;43.666;18.444;2022-12-11T10:29:46;4.80;;;2.63;;
65461;SDS011;53236;43.666;18.444;2022-12-11T10:32:20;12.93;;;6.40;;
65461;SDS011;53236;43.666;18.444;2022-12-11T10:34:48;17.23;;;10.50;;
65461;SDS011;53236;43.666;18.444;2022-12-11T10:37:23;15.20;;;10.47;;
65461;SDS011;53236;43.666;18.444;2022-12-11T10:39:48;10.73;;;7.47;;
65461;SDS011;53236;43.666;18.444;2022-12-11T10:42:18;51.03;;;26.40;;
65461;SDS011;53236;43.666;18.444;2022-12-11T10:44:56;12.87;;;7.23;;
65461;SDS011;53236;43.666;18.444;2022-12-11T10:47:24;9.73;;;6.67;;
65461;SDS011;53236;43.666;18.444;2022-12-11T10:50:00;5.30;;;3.67;;
65461;SDS011;53236;43.666;18.444;2022-12-11T10:52:30;11.03;;;6.80;;
65461;SDS011;53236;43.666;18.444;2022-12-11T10:55:06;57.40;;;31.27;;
65461;SDS011;53236;43.666;18.444;2022-12-11T10:57:44;12.93;;;8.40;;
65461;SDS011;53236;43.666;18.444;2022-12-11T11:00:30;14.47;;;9.10;;
65461;SDS011;53236;43.666;18.444;2022-12-11T11:03:02;21.07;;;11.63;;
65461;SDS011;53236;43.666;18.444;2022-12-11T11:08:41;19.13;;;12.27;;
65461;SDS011;53236;43.666;18.444;2022-12-11T11:10:57;10.10;;;6.90;;
65461;SDS011;53236;43.666;18.444;2022-12-11T11:13:25;24.67;;;15.60;;
65461;SDS011;53236;43.666;18.444;2022-12-11T11:16:25;8.10;;;5.83;;
65461;SDS011;53236;43.666;18.444;2022-12-11T11:18:49;8.23;;;5.40;;
65461;SDS011;53236;43.666;18.444;2022-12-11T11:21:18;10.10;;;6.10;;
65461;SDS011;53236;43.666;18.444;2022-12-11T11:23:46;26.03;;;16.77;;
65461;SDS011;53236;43.666;18.444;2022-12-11T11:26:12;7.23;;;5.47;;
65461;SDS011;53236;43.666;18.444;2022-12-11T11:28:39;6.43;;;4.73;;
65461;SDS011;53236;43.666;18.444;2022-12-11T11:31:11;8.37;;;5.50;;
65461;SDS011;53236;43.666;18.444;2022-12-11T11:34:13;19.83;;;12.53;;
65461;SDS011;53236;43.666;18.444;2022-12-11T11:36:33;9.70;;;6.37;;
65461;SDS011;53236;43.666;18.444;2022-12-11T11:39:09;11.53;;;7.83;;
65461;SDS011;53236;43.666;18.444;2022-12-11T11:44:28;6.93;;;5.13;;
65461;SDS011;53236;43.666;18.444;2022-12-11T11:46:59;13.33;;;8.50;;
65461;SDS011;53236;43.666;18.444;2022-12-11T11:57:46;42.93;;;25.07;;
65461;SDS011;53236;43.666;18.444;2022-12-11T12:00:22;10.27;;;7.23;;
65461;SDS011;53236;43.666;18.444;2022-12-11T12:02:59;14.40;;;11.23;;
65461;SDS011;53236;43.666;18.444;2022-12-11T12:16:41;27.75;;;16.10;;
65461;SDS011;53236;43.666;18.444;2022-12-11T12:21:46;24.87;;;15.80;;
65461;SDS011;53236;43.666;18.444;2022-12-11T12:30:04;11.43;;;7.73;;
65461;SDS011;53236;43.666;18.444;2022-12-11T12:35:15;16.27;;;11.40;;
65461;SDS011;53236;43.666;18.444;2022-12-11T12:52:01;12.23;;;8.87;;
65461;SDS011;53236;43.666;18.444;2022-12-11T12:54:29;16.27;;;10.77;;
65461;SDS011;53236;43.666;18.444;2022-12-11T12:56:57;15.30;;;9.70;;
65461;SDS011;53236;43.666;18.444;2022-12-11T12:59:26;14.00;;;10.33;;
65461;SDS011;53236;43.666;18.444;2022-12-11T13:01:54;11.30;;;8.83;;
65461;SDS011;53236;43.666;18.444;2022-12-11T13:04:26;10.23;;;7.90;;
65461;SDS011;53236;43.666;18.444;2022-12-11T13:07:08;13.07;;;10.37;;
65461;SDS011;53236;43.666;18.444;2022-12-11T13:09:59;81.17;;;41.47;;
65461;SDS011;53236;43.666;18.444;2022-12-11T13:12:32;17.43;;;12.70;;
65461;SDS011;53236;43.666;18.444;2022-12-11T13:15:32;18.87;;;13.73;;
65461;SDS011;53236;43.666;18.444;2022-12-11T13:17:57;29.47;;;17.53;;
65461;SDS011;53236;43.666;18.444;2022-12-11T13:20:25;26.90;;;15.70;;
65461;SDS011;53236;43.666;18.444;2022-12-11T13:23:07;18.07;;;12.13;;
65461;SDS011;53236;43.666;18.444;2022-12-11T13:26:26;15.90;;;11.93;;
65461;SDS011;53236;43.666;18.444;2022-12-11T13:34:01;18.70;;;12.07;;
65461;SDS011;53236;43.666;18.444;2022-12-11T13:36:45;12.93;;;9.60;;
65461;SDS011;53236;43.666;18.444;2022-12-11T13:39:21;14.30;;;10.03;;
65461;SDS011;53236;43.666;18.444;2022-12-11T13:41:49;28.27;;;17.37;;
65461;SDS011;53236;43.666;18.444;2022-12-11T13:44:25;40.10;;;22.10;;
65461;SDS011;53236;43.666;18.444;2022-12-11T13:47:11;12.07;;;9.53;;
65461;SDS011;53236;43.666;18.444;2022-12-11T13:49:41;16.27;;;11.60;;
65461;SDS011;53236;43.666;18.444;2022-12-11T13:52:17;14.10;;;11.03;;
65461;SDS011;53236;43.666;18.444;2022-12-11T13:54:49;18.90;;;14.93;;
65461;SDS011;53236;43.666;18.444;2022-12-11T13:57:19;23.60;;;16.60;;
65461;SDS011;53236;43.666;18.444;2022-12-11T13:59:51;27.00;;;19.00;;
65461;SDS011;53236;43.666;18.444;2022-12-11T14:02:28;20.50;;;14.50;;
65461;SDS011;53236;43.666;18.444;2022-12-11T14:05:07;19.80;;;14.87;;
65461;SDS011;53236;43.666;18.444;2022-12-11T14:07:39;20.33;;;15.00;;
65461;SDS011;53236;43.666;18.444;2022-12-11T14:10:19;15.40;;;11.77;;
65461;SDS011;53236;43.666;18.444;2022-12-11T14:15:21;21.83;;;16.63;;
65461;SDS011;53236;43.666;18.444;2022-12-11T14:17:47;23.93;;;16.50;;
65461;SDS011;53236;43.666;18.444;2022-12-11T14:20:18;19.80;;;14.67;;
65461;SDS011;53236;43.666;18.444;2022-12-11T14:22:47;15.90;;;11.30;;
65461;SDS011;53236;43.666;18.444;2022-12-11T14:25:31;41.73;;;31.00;;
65461;SDS011;53236;43.666;18.444;2022-12-11T14:27:56;18.33;;;13.03;;
65461;SDS011;53236;43.666;18.444;2022-12-11T14:30:23;13.00;;;9.80;;
65461;SDS011;53236;43.666;18.444;2022-12-11T14:32:51;106.07;;;63.37;;
65461;SDS011;53236;43.666;18.444;2022-12-11T14:35:25;20.03;;;14.40;;
65461;SDS011;53236;43.666;18.444;2022-12-11T14:38:01;14.13;;;10.50;;
65461;SDS011;53236;43.666;18.444;2022-12-11T14:40:36;14.30;;;10.63;;
65461;SDS011;53236;43.666;18.444;2022-12-11T14:43:10;12.27;;;9.17;;
65461;SDS011;53236;43.666;18.444;2022-12-11T14:46:16;12.97;;;9.30;;
65461;SDS011;53236;43.666;18.444;2022-12-11T14:48:56;15.23;;;10.93;;
65461;SDS011;53236;43.666;18.444;2022-12-11T14:51:26;15.53;;;8.97;;
65461;SDS011;53236;43.666;18.444;2022-12-11T14:53:57;26.60;;;16.50;;
65461;SDS011;53236;43.666;18.444;2022-12-11T14:56:24;13.20;;;10.00;;
65461;SDS011;53236;43.666;18.444;2022-12-11T14:58:56;12.90;;;9.47;;
65461;SDS011;53236;43.666;18.444;2022-12-11T15:01:43;14.17;;;9.30;;
65461;SDS011;53236;43.666;18.444;2022-12-11T15:06:48;10.67;;;8.30;;
65461;SDS011;53236;43.666;18.444;2022-12-11T15:09:16;14.17;;;9.20;;
65461;SDS011;53236;43.666;18.444;2022-12-11T15:11:48;13.57;;;9.13;;
65461;SDS011;53236;43.666;18.444;2022-12-11T15:14:15;13.07;;;10.13;;
65461;SDS011;53236;43.666;18.444;2022-12-11T15:16:43;34.93;;;20.27;;
65461;SDS011;53236;43.666;18.444;2022-12-11T15:22:12;17.77;;;11.33;;
65461;SDS011;53236;43.666;18.444;2022-12-11T15:24:41;15.93;;;10.97;;
65461;SDS011;53236;43.666;18.444;2022-12-11T15:27:20;14.70;;;10.93;;
65461;SDS011;53236;43.666;18.444;2022-12-11T15:29:50;87.53;;;52.17;;
65461;SDS011;53236;43.666;18.444;2022-12-11T15:32:17;51.13;;;32.30;;
65461;SDS011;53236;43.666;18.444;2022-12-11T15:34:48;22.53;;;15.30;;
65461;SDS011;53236;43.666;18.444;2022-12-11T15:42:36;88.13;;;45.70;;
65461;SDS011;53236;43.666;18.444;2022-12-11T15:45:05;20.07;;;13.20;;
65461;SDS011;53236;43.666;18.444;2022-12-11T15:47:32;25.30;;;16.30;;
65461;SDS011;53236;43.666;18.444;2022-12-11T15:49:59;25.97;;;15.80;;
65461;SDS011;53236;43.666;18.444;2022-12-11T15:52:31;21.33;;;13.93;;
65461;SDS011;53236;43.666;18.444;2022-12-11T15:54:58;45.57;;;32.63;;
65461;SDS011;53236;43.666;18.444;2022-12-11T15:57:24;45.50;;;32.80;;
65461;SDS011;53236;43.666;18.444;2022-12-11T15:59:50;31.07;;;24.97;;
65461;SDS011;53236;43.666;18.444;2022-12-11T16:02:18;32.33;;;24.07;;
65461;SDS011;53236;43.666;18.444;2022-12-11T16:04:44;30.20;;;21.17;;
65461;SDS011;53236;43.666;18.444;2022-12-11T16:07:17;35.50;;;24.07;;
65461;SDS011;53236;43.666;18.444;2022-12-11T16:09:45;51.63;;;34.40;;
65461;SDS011;53236;43.666;18.444;2022-12-11T16:12:11;40.47;;;25.93;;
65461;SDS011;53236;43.666;18.444;2022-12-11T16:14:38;35.83;;;22.63;;
65461;SDS011;53236;43.666;18.444;2022-12-11T16:17:05;44.37;;;29.57;;
65461;SDS011;53236;43.666;18.444;2022-12-11T16:19:32;57.10;;;32.83;;
65461;SDS011;53236;43.666;18.444;2022-12-11T16:21:59;39.70;;;24.87;;
65461;SDS011;53236;43.666;18.444;2022-12-11T16:24:24;22.93;;;15.93;;
65461;SDS011;53236;43.666;18.444;2022-12-11T16:26:50;27.67;;;16.97;;
65461;SDS011;53236;43.666;18.444;2022-12-11T16:29:16;22.40;;;16.37;;
65461;SDS011;53236;43.666;18.444;2022-12-11T16:31:42;23.73;;;16.00;;
65461;SDS011;53236;43.666;18.444;2022-12-11T16:34:07;20.00;;;14.00;;
65461;SDS011;53236;43.666;18.444;2022-12-11T16:36:33;21.90;;;14.73;;
65461;SDS011;53236;43.666;18.444;2022-12-11T16:38:59;21.70;;;14.87;;
65461;SDS011;53236;43.666;18.444;2022-12-11T16:41:25;32.10;;;22.27;;
65461;SDS011;53236;43.666;18.444;2022-12-11T16:43:50;29.10;;;20.37;;